BEL1YC EBBR-LIRF
Flight info
| Callsign | BEL1YC |
|---|---|
| Flight time | 1h 44m |
| Altitude | 37000 |
| Route | SOPOK Y863 ROPUV L607 UTABA M738 BATUB DCT TIRUL M738 NATAG DCT ADOSA DCT PELEG DCT BAGNO M726 GAVRA Y345 RITEB |
| Aircraft | A20N/M-DE3FGHIJ1LORVWY/HB1G1 |
Departure
| Time | 2026-05-04 11:10 |
|---|---|
| Airport | Brussels Airport (EBBR) |
Arrival
| Time | 2026-05-04 12:55 |
|---|---|
| Airport | Rome–Fiumicino Leonardo da Vinci International Airport (LIRF) |
| Time | Latitude | Longitude | Altitude | Speed | Heading |
|---|---|---|---|---|---|
| 2026-05-04 10:41 | 50.90343 | 4.48372 | 192 ft | 0 kts | 155° |
| 2026-05-04 11:01 | 50.90396 | 4.48329 | 192 ft | 2 kts | 135° |
| 2026-05-04 11:02 | 50.90406 | 4.48310 | 192 ft | 2 kts | 116° |
| 2026-05-04 11:02 | 50.90411 | 4.48287 | 192 ft | 2 kts | 98° |
| 2026-05-04 11:05 | 50.90545 | 4.48726 | 192 ft | 19 kts | 66° |
| 2026-05-04 11:06 | 50.90606 | 4.48936 | 192 ft | 22 kts | 65° |
| 2026-05-04 11:06 | 50.90672 | 4.49167 | 192 ft | 24 kts | 65° |
| 2026-05-04 11:06 | 50.90744 | 4.49414 | 192 ft | 24 kts | 65° |
| 2026-05-04 11:06 | 50.90814 | 4.49657 | 192 ft | 23 kts | 65° |
| 2026-05-04 11:08 | 50.89433 | 4.49444 | 193 ft | 161 kts | 194° |
| 2026-05-04 11:10 | 50.81672 | 4.55582 | 3796 ft | 245 kts | 142° |
| 2026-05-04 11:12 | 50.71505 | 4.68750 | 9429 ft | 286 kts | 140° |
| 2026-05-04 11:12 | 50.70194 | 4.71080 | 10199 ft | 291 kts | 123° |
| 2026-05-04 11:12 | 50.69327 | 4.74010 | 10775 ft | 304 kts | 109° |
| 2026-05-04 11:12 | 50.68708 | 4.77331 | 11185 ft | 322 kts | 107° |
| 2026-05-04 11:13 | 50.68113 | 4.80771 | 11658 ft | 335 kts | 107° |
| 2026-05-04 11:13 | 50.67487 | 4.84322 | 12393 ft | 339 kts | 107° |
| 2026-05-04 11:13 | 50.66845 | 4.87881 | 13172 ft | 341 kts | 107° |
| 2026-05-04 11:13 | 50.66185 | 4.91479 | 13913 ft | 344 kts | 108° |
| 2026-05-04 11:14 | 50.65953 | 4.92693 | 14152 ft | 345 kts | 109° |
| 2026-05-04 11:14 | 50.64443 | 4.99864 | 15532 ft | 352 kts | 111° |
| 2026-05-04 11:16 | 50.58071 | 5.28649 | 20267 ft | 379 kts | 112° |
| 2026-05-04 11:16 | 50.57207 | 5.32539 | 20816 ft | 382 kts | 112° |
| 2026-05-04 11:16 | 50.56331 | 5.36477 | 21358 ft | 386 kts | 112° |
| 2026-05-04 11:17 | 50.55440 | 5.40477 | 21892 ft | 390 kts | 112° |
| 2026-05-04 11:17 | 50.54540 | 5.44507 | 22436 ft | 393 kts | 112° |
| 2026-05-04 11:19 | 50.48014 | 5.73553 | 25852 ft | 415 kts | 114° |
| 2026-05-04 11:19 | 50.47045 | 5.77841 | 26292 ft | 418 kts | 114° |
| 2026-05-04 11:19 | 50.46077 | 5.82116 | 26709 ft | 421 kts | 115° |
| 2026-05-04 11:19 | 50.45093 | 5.86448 | 27115 ft | 424 kts | 115° |
| 2026-05-04 11:20 | 50.44097 | 5.90814 | 27513 ft | 427 kts | 115° |
| 2026-05-04 11:20 | 50.43104 | 5.95163 | 27868 ft | 430 kts | 115° |
| 2026-05-04 11:20 | 50.42084 | 5.99609 | 28258 ft | 432 kts | 115° |
| 2026-05-04 11:20 | 50.41073 | 6.04019 | 28629 ft | 435 kts | 115° |
| 2026-05-04 11:22 | 50.33816 | 6.35410 | 31536 ft | 438 kts | 115° |
| 2026-05-04 11:22 | 50.32771 | 6.39893 | 31911 ft | 438 kts | 115° |
| 2026-05-04 11:23 | 50.31739 | 6.44305 | 32294 ft | 437 kts | 115° |
| 2026-05-04 11:23 | 50.30688 | 6.48795 | 32659 ft | 437 kts | 115° |
| 2026-05-04 11:24 | 50.24423 | 6.75415 | 34621 ft | 436 kts | 115° |
| 2026-05-04 11:25 | 50.23477 | 6.79900 | 34909 ft | 438 kts | 112° |
| 2026-05-04 11:25 | 50.22691 | 6.84528 | 35143 ft | 440 kts | 108° |
| 2026-05-04 11:25 | 50.22089 | 6.89203 | 35370 ft | 442 kts | 104° |
| 2026-05-04 11:26 | 50.21406 | 6.98770 | 35710 ft | 448 kts | 99° |
| 2026-05-04 11:27 | 50.19319 | 7.32645 | 36857 ft | 447 kts | 106° |
| 2026-05-04 11:28 | 50.18614 | 7.37356 | 36966 ft | 447 kts | 109° |
| 2026-05-04 11:28 | 50.17720 | 7.42000 | 36976 ft | 445 kts | 112° |
| 2026-05-04 11:28 | 50.15777 | 7.51115 | 36977 ft | 445 kts | 112° |
| 2026-05-04 11:29 | 50.13823 | 7.60267 | 36972 ft | 445 kts | 112° |
| 2026-05-04 11:29 | 50.11885 | 7.69379 | 36961 ft | 445 kts | 113° |
| 2026-05-04 11:31 | 50.03340 | 7.99819 | 36958 ft | 435 kts | 129° |
| 2026-05-04 11:33 | 49.91438 | 8.26999 | 36950 ft | 436 kts | 129° |
| 2026-05-04 11:33 | 49.88015 | 8.34757 | 36946 ft | 435 kts | 129° |
| 2026-05-04 11:34 | 49.84322 | 8.42112 | 36947 ft | 432 kts | 136° |
| 2026-05-04 11:34 | 49.80187 | 8.48640 | 36958 ft | 428 kts | 141° |
| 2026-05-04 11:35 | 49.75721 | 8.54708 | 36961 ft | 424 kts | 148° |
| 2026-05-04 11:35 | 49.70686 | 8.59386 | 36967 ft | 417 kts | 159° |
| 2026-05-04 11:36 | 49.65292 | 8.62451 | 36976 ft | 412 kts | 169° |
| 2026-05-04 11:36 | 49.59722 | 8.64185 | 36985 ft | 410 kts | 173° |
| 2026-05-04 11:37 | 49.54087 | 8.65776 | 36988 ft | 409 kts | 174° |
| 2026-05-04 11:37 | 49.48508 | 8.67635 | 36991 ft | 411 kts | 169° |
| 2026-05-04 11:38 | 49.43048 | 8.70405 | 36992 ft | 415 kts | 163° |
| 2026-05-04 11:38 | 49.37772 | 8.73976 | 36988 ft | 417 kts | 160° |
| 2026-05-04 11:39 | 49.32465 | 8.77666 | 36986 ft | 417 kts | 160° |
| 2026-05-04 11:41 | 49.13985 | 8.90430 | 36975 ft | 417 kts | 160° |
| 2026-05-04 11:41 | 49.08718 | 8.94042 | 36980 ft | 417 kts | 160° |
| 2026-05-04 11:42 | 49.03406 | 8.97681 | 36986 ft | 418 kts | 160° |
| 2026-05-04 11:42 | 48.98093 | 9.01314 | 36978 ft | 418 kts | 160° |
| 2026-05-04 11:43 | 48.92795 | 9.04928 | 36981 ft | 418 kts | 160° |
| 2026-05-04 11:43 | 48.87510 | 9.08522 | 36987 ft | 418 kts | 160° |
| 2026-05-04 11:44 | 48.82191 | 9.12122 | 36989 ft | 419 kts | 160° |
| 2026-05-04 11:44 | 48.76886 | 9.15715 | 36989 ft | 418 kts | 160° |
| 2026-05-04 11:45 | 48.71549 | 9.19329 | 36984 ft | 418 kts | 160° |
| 2026-05-04 11:45 | 48.66267 | 9.22893 | 36990 ft | 418 kts | 160° |
| 2026-05-04 11:46 | 48.60915 | 9.26380 | 36989 ft | 417 kts | 163° |
| 2026-05-04 11:46 | 48.55492 | 9.29406 | 36989 ft | 417 kts | 163° |
| 2026-05-04 11:47 | 48.50081 | 9.32437 | 36989 ft | 418 kts | 163° |
| 2026-05-04 11:47 | 48.44622 | 9.35489 | 36993 ft | 417 kts | 163° |
| 2026-05-04 11:48 | 48.39204 | 9.38510 | 36995 ft | 417 kts | 163° |
| 2026-05-04 11:48 | 48.33779 | 9.41530 | 36995 ft | 417 kts | 163° |
| 2026-05-04 11:49 | 48.28337 | 9.44549 | 36993 ft | 417 kts | 163° |
| 2026-05-04 11:49 | 48.22854 | 9.47257 | 36992 ft | 414 kts | 167° |
| 2026-05-04 11:50 | 48.17353 | 9.49650 | 36993 ft | 415 kts | 167° |
| 2026-05-04 11:50 | 48.11783 | 9.52076 | 36990 ft | 416 kts | 167° |
| 2026-05-04 11:51 | 48.06301 | 9.54655 | 36991 ft | 417 kts | 163° |
| 2026-05-04 11:51 | 48.00937 | 9.58125 | 36988 ft | 421 kts | 156° |
| 2026-05-04 11:52 | 47.95830 | 9.62523 | 36985 ft | 424 kts | 150° |
| 2026-05-04 11:52 | 47.90978 | 9.67491 | 36988 ft | 424 kts | 149° |
| 2026-05-04 11:53 | 47.86238 | 9.72336 | 36991 ft | 423 kts | 149° |
| 2026-05-04 11:53 | 47.81355 | 9.77298 | 36989 ft | 423 kts | 150° |
| 2026-05-04 11:55 | 47.61907 | 9.96962 | 37018 ft | 424 kts | 149° |
| 2026-05-04 11:56 | 47.57005 | 10.01892 | 37027 ft | 424 kts | 149° |
| 2026-05-04 11:56 | 47.52132 | 10.06782 | 37050 ft | 424 kts | 149° |
| 2026-05-04 11:57 | 47.47274 | 10.11643 | 37057 ft | 425 kts | 149° |
| 2026-05-04 11:57 | 47.42383 | 10.16529 | 37070 ft | 425 kts | 149° |
| 2026-05-04 11:58 | 47.37470 | 10.21426 | 37075 ft | 425 kts | 149° |
| 2026-05-04 11:58 | 47.32579 | 10.26291 | 37086 ft | 426 kts | 149° |
| 2026-05-04 11:59 | 47.27654 | 10.31180 | 37101 ft | 426 kts | 149° |
| 2026-05-04 11:59 | 47.22745 | 10.36042 | 37113 ft | 427 kts | 149° |
| 2026-05-04 12:00 | 47.17815 | 10.40921 | 37109 ft | 427 kts | 149° |
| 2026-05-04 12:00 | 47.12871 | 10.45791 | 37109 ft | 427 kts | 149° |
| 2026-05-04 12:01 | 47.07839 | 10.50333 | 37115 ft | 425 kts | 155° |
| 2026-05-04 12:02 | 46.88567 | 10.60573 | 37141 ft | 422 kts | 165° |
| 2026-05-04 12:03 | 46.82901 | 10.62799 | 37151 ft | 420 kts | 169° |
| 2026-05-04 12:03 | 46.77217 | 10.64727 | 37151 ft | 421 kts | 169° |
| 2026-05-04 12:04 | 46.71493 | 10.66702 | 37146 ft | 421 kts | 170° |
| 2026-05-04 12:04 | 46.65830 | 10.68656 | 37145 ft | 420 kts | 170° |
| 2026-05-04 12:05 | 46.60096 | 10.70618 | 37132 ft | 421 kts | 170° |
| 2026-05-04 12:05 | 46.54374 | 10.72565 | 37130 ft | 421 kts | 170° |
| 2026-05-04 12:06 | 46.48667 | 10.74502 | 37126 ft | 421 kts | 170° |
| 2026-05-04 12:06 | 46.42982 | 10.76427 | 37128 ft | 421 kts | 170° |
| 2026-05-04 12:07 | 46.37294 | 10.78347 | 37132 ft | 422 kts | 170° |
| 2026-05-04 12:07 | 46.31564 | 10.80278 | 37133 ft | 422 kts | 169° |
| 2026-05-04 12:08 | 46.25825 | 10.82209 | 37131 ft | 423 kts | 170° |
| 2026-05-04 12:08 | 46.20101 | 10.84130 | 37122 ft | 423 kts | 169° |
| 2026-05-04 12:09 | 46.14384 | 10.86044 | 37113 ft | 422 kts | 169° |
| 2026-05-04 12:09 | 46.08678 | 10.87952 | 37111 ft | 423 kts | 169° |
| 2026-05-04 12:10 | 46.02965 | 10.89858 | 37103 ft | 423 kts | 170° |
| 2026-05-04 12:10 | 45.97201 | 10.91775 | 37090 ft | 424 kts | 169° |
| 2026-05-04 12:11 | 45.91485 | 10.93675 | 37086 ft | 425 kts | 169° |
| 2026-05-04 12:11 | 45.85686 | 10.95595 | 37084 ft | 425 kts | 170° |
| 2026-05-04 12:12 | 45.79954 | 10.97489 | 37078 ft | 425 kts | 170° |
| 2026-05-04 12:12 | 45.74189 | 10.99394 | 37078 ft | 425 kts | 170° |
| 2026-05-04 12:14 | 45.51484 | 11.09209 | 37065 ft | 429 kts | 163° |
| 2026-05-04 12:15 | 45.45867 | 11.12076 | 37056 ft | 429 kts | 163° |
| 2026-05-04 12:15 | 45.40255 | 11.14938 | 37054 ft | 429 kts | 163° |
| 2026-05-04 12:16 | 45.34638 | 11.17794 | 37048 ft | 429 kts | 163° |
| 2026-05-04 12:16 | 45.29024 | 11.20642 | 37048 ft | 429 kts | 163° |
| 2026-05-04 12:17 | 45.23431 | 11.23474 | 37043 ft | 428 kts | 163° |
| 2026-05-04 12:17 | 45.17840 | 11.26299 | 37041 ft | 429 kts | 163° |
| 2026-05-04 12:18 | 45.12227 | 11.29130 | 37042 ft | 430 kts | 163° |
| 2026-05-04 12:18 | 45.06591 | 11.31965 | 37042 ft | 430 kts | 163° |
| 2026-05-04 12:19 | 45.00942 | 11.34802 | 37044 ft | 431 kts | 163° |
| 2026-05-04 12:19 | 44.95307 | 11.37628 | 37040 ft | 431 kts | 163° |
| 2026-05-04 12:20 | 44.89680 | 11.40443 | 37036 ft | 431 kts | 163° |
| 2026-05-04 12:20 | 44.84039 | 11.43248 | 37045 ft | 431 kts | 163° |
| 2026-05-04 12:21 | 44.78382 | 11.46057 | 37047 ft | 431 kts | 163° |
| 2026-05-04 12:21 | 44.72715 | 11.48871 | 37048 ft | 432 kts | 163° |
| 2026-05-04 12:22 | 44.67052 | 11.51680 | 37052 ft | 433 kts | 163° |
| 2026-05-04 12:22 | 44.61403 | 11.54477 | 37055 ft | 433 kts | 163° |
| 2026-05-04 12:23 | 44.55704 | 11.57293 | 37056 ft | 434 kts | 163° |
| 2026-05-04 12:23 | 44.50026 | 11.60095 | 37061 ft | 434 kts | 163° |
| 2026-05-04 12:24 | 44.44309 | 11.62911 | 37051 ft | 434 kts | 163° |
| 2026-05-04 12:24 | 44.38598 | 11.65723 | 37063 ft | 435 kts | 164° |
| 2026-05-04 12:25 | 44.32870 | 11.68564 | 37065 ft | 436 kts | 164° |
| 2026-05-04 12:25 | 44.27187 | 11.71347 | 37068 ft | 435 kts | 165° |
| 2026-05-04 12:26 | 44.21348 | 11.73621 | 36934 ft | 434 kts | 171° |
| 2026-05-04 12:26 | 44.18395 | 11.74383 | 36620 ft | 429 kts | 175° |
| 2026-05-04 12:26 | 44.15445 | 11.74967 | 36719 ft | 426 kts | 175° |
| 2026-05-04 12:27 | 44.12549 | 11.75536 | 36443 ft | 424 kts | 175° |
| 2026-05-04 12:27 | 44.09640 | 11.76111 | 36136 ft | 422 kts | 175° |
| 2026-05-04 12:27 | 44.06758 | 11.76683 | 35779 ft | 420 kts | 175° |
| 2026-05-04 12:27 | 44.03838 | 11.77263 | 35318 ft | 420 kts | 175° |
| 2026-05-04 12:28 | 44.00988 | 11.77827 | 34802 ft | 420 kts | 175° |
| 2026-05-04 12:28 | 43.98098 | 11.78403 | 34242 ft | 420 kts | 175° |
| 2026-05-04 12:28 | 43.95197 | 11.78979 | 33661 ft | 420 kts | 174° |
| 2026-05-04 12:28 | 43.92295 | 11.79554 | 33086 ft | 420 kts | 174° |
| 2026-05-04 12:29 | 43.89408 | 11.80125 | 32499 ft | 419 kts | 174° |
| 2026-05-04 12:29 | 43.86515 | 11.80695 | 31921 ft | 420 kts | 174° |
| 2026-05-04 12:29 | 43.83619 | 11.81263 | 31344 ft | 421 kts | 174° |
| 2026-05-04 12:29 | 43.80712 | 11.81832 | 30755 ft | 422 kts | 174° |
| 2026-05-04 12:30 | 43.77813 | 11.82452 | 30203 ft | 426 kts | 172° |
| 2026-05-04 12:30 | 43.74851 | 11.83308 | 29587 ft | 428 kts | 169° |
| 2026-05-04 12:30 | 43.71991 | 11.84220 | 29043 ft | 425 kts | 169° |
| 2026-05-04 12:30 | 43.69111 | 11.85139 | 28597 ft | 420 kts | 169° |
| 2026-05-04 12:31 | 43.66272 | 11.86044 | 28134 ft | 415 kts | 169° |
| 2026-05-04 12:31 | 43.63506 | 11.86928 | 27675 ft | 411 kts | 169° |
| 2026-05-04 12:31 | 43.60730 | 11.87813 | 27213 ft | 408 kts | 169° |
| 2026-05-04 12:31 | 43.57988 | 11.88686 | 26763 ft | 404 kts | 169° |
| 2026-05-04 12:32 | 43.55252 | 11.89556 | 26297 ft | 401 kts | 169° |
| 2026-05-04 12:32 | 43.49869 | 11.91267 | 25378 ft | 395 kts | 169° |
| 2026-05-04 12:32 | 43.47196 | 11.92114 | 24919 ft | 393 kts | 169° |
| 2026-05-04 12:33 | 43.44571 | 11.92946 | 24465 ft | 390 kts | 169° |
| 2026-05-04 12:33 | 43.41934 | 11.93781 | 24000 ft | 388 kts | 169° |
| 2026-05-04 12:33 | 43.39318 | 11.94609 | 23560 ft | 385 kts | 169° |
| 2026-05-04 12:33 | 43.36714 | 11.95431 | 23115 ft | 383 kts | 169° |
| 2026-05-04 12:34 | 43.34116 | 11.96251 | 22695 ft | 380 kts | 169° |
| 2026-05-04 12:34 | 43.31551 | 11.97062 | 22280 ft | 377 kts | 169° |
| 2026-05-04 12:34 | 43.29026 | 11.97858 | 21869 ft | 375 kts | 169° |
| 2026-05-04 12:34 | 43.26477 | 11.98661 | 21428 ft | 373 kts | 169° |
| 2026-05-04 12:35 | 43.23953 | 11.99456 | 20998 ft | 371 kts | 169° |
| 2026-05-04 12:35 | 43.21481 | 12.00233 | 20598 ft | 368 kts | 169° |
| 2026-05-04 12:35 | 43.18998 | 12.01013 | 20188 ft | 365 kts | 169° |
| 2026-05-04 12:35 | 43.16520 | 12.01792 | 19775 ft | 363 kts | 169° |
| 2026-05-04 12:36 | 43.14056 | 12.02566 | 19347 ft | 361 kts | 169° |
| 2026-05-04 12:36 | 43.11638 | 12.03322 | 18945 ft | 359 kts | 169° |
| 2026-05-04 12:36 | 43.09218 | 12.04078 | 18548 ft | 356 kts | 169° |
| 2026-05-04 12:36 | 43.06803 | 12.04836 | 18150 ft | 354 kts | 169° |
| 2026-05-04 12:37 | 43.04404 | 12.05587 | 17742 ft | 352 kts | 169° |
| 2026-05-04 12:37 | 43.02046 | 12.06323 | 17346 ft | 350 kts | 169° |
| 2026-05-04 12:37 | 42.99686 | 12.07058 | 16958 ft | 347 kts | 169° |
| 2026-05-04 12:37 | 42.97367 | 12.07780 | 16599 ft | 344 kts | 169° |
| 2026-05-04 12:38 | 42.95047 | 12.08503 | 16228 ft | 340 kts | 168° |
| 2026-05-04 12:38 | 42.92719 | 12.09228 | 15850 ft | 337 kts | 168° |
| 2026-05-04 12:38 | 42.90461 | 12.09932 | 15500 ft | 334 kts | 168° |
| 2026-05-04 12:38 | 42.88190 | 12.10638 | 15120 ft | 332 kts | 168° |
| 2026-05-04 12:39 | 42.85950 | 12.11331 | 14742 ft | 330 kts | 168° |
| 2026-05-04 12:39 | 42.83714 | 12.12024 | 14347 ft | 327 kts | 167° |
| 2026-05-04 12:39 | 42.81524 | 12.12705 | 13976 ft | 325 kts | 167° |
| 2026-05-04 12:39 | 42.79319 | 12.13392 | 13612 ft | 322 kts | 167° |
| 2026-05-04 12:40 | 42.77169 | 12.14058 | 13239 ft | 320 kts | 167° |
| 2026-05-04 12:40 | 42.75007 | 12.14729 | 12868 ft | 317 kts | 167° |
| 2026-05-04 12:40 | 42.72865 | 12.15393 | 12500 ft | 315 kts | 167° |
| 2026-05-04 12:40 | 42.70732 | 12.15975 | 12114 ft | 312 kts | 171° |
| 2026-05-04 12:41 | 42.68580 | 12.16338 | 11741 ft | 310 kts | 175° |
| 2026-05-04 12:41 | 42.66444 | 12.16494 | 11364 ft | 308 kts | 177° |
| 2026-05-04 12:41 | 42.64286 | 12.16607 | 11019 ft | 312 kts | 177° |
| 2026-05-04 12:41 | 42.62115 | 12.16720 | 10597 ft | 311 kts | 177° |
| 2026-05-04 12:42 | 42.59958 | 12.16831 | 10276 ft | 305 kts | 177° |
| 2026-05-04 12:42 | 42.57885 | 12.16940 | 10223 ft | 290 kts | 177° |
| 2026-05-04 12:42 | 42.55906 | 12.17044 | 10155 ft | 276 kts | 177° |
| 2026-05-04 12:42 | 42.54009 | 12.17145 | 9916 ft | 270 kts | 177° |
| 2026-05-04 12:43 | 42.52148 | 12.17243 | 9594 ft | 267 kts | 177° |
| 2026-05-04 12:43 | 42.50315 | 12.17340 | 9273 ft | 265 kts | 177° |
| 2026-05-04 12:43 | 42.48472 | 12.17435 | 8972 ft | 262 kts | 178° |
| 2026-05-04 12:43 | 42.46652 | 12.17425 | 8732 ft | 258 kts | 180° |
| 2026-05-04 12:44 | 42.44880 | 12.17372 | 8545 ft | 253 kts | 180° |
| 2026-05-04 12:44 | 42.43092 | 12.17322 | 8380 ft | 265 kts | 180° |
| 2026-05-04 12:44 | 42.41233 | 12.17278 | 8209 ft | 268 kts | 180° |
| 2026-05-04 12:44 | 42.39360 | 12.17239 | 7966 ft | 267 kts | 180° |
| 2026-05-04 12:45 | 42.37505 | 12.17205 | 7688 ft | 266 kts | 180° |
| 2026-05-04 12:45 | 42.35674 | 12.17175 | 7402 ft | 265 kts | 180° |
| 2026-05-04 12:45 | 42.33821 | 12.17146 | 7099 ft | 263 kts | 180° |
| 2026-05-04 12:45 | 42.31989 | 12.17118 | 6805 ft | 262 kts | 180° |
| 2026-05-04 12:46 | 42.30199 | 12.17092 | 6504 ft | 260 kts | 180° |
| 2026-05-04 12:46 | 42.28382 | 12.17122 | 6238 ft | 261 kts | 176° |
| 2026-05-04 12:46 | 42.26570 | 12.17317 | 6004 ft | 260 kts | 174° |
| 2026-05-04 12:46 | 42.24765 | 12.17549 | 5770 ft | 259 kts | 174° |
| 2026-05-04 12:47 | 42.22975 | 12.17784 | 5532 ft | 258 kts | 174° |
| 2026-05-04 12:47 | 42.21183 | 12.18019 | 5293 ft | 257 kts | 174° |
| 2026-05-04 12:47 | 42.19402 | 12.18249 | 5040 ft | 257 kts | 174° |
| 2026-05-04 12:47 | 42.17644 | 12.18475 | 4793 ft | 256 kts | 174° |
| 2026-05-04 12:48 | 42.15852 | 12.18705 | 4534 ft | 255 kts | 174° |
| 2026-05-04 12:48 | 42.14096 | 12.18929 | 4294 ft | 254 kts | 174° |
| 2026-05-04 12:48 | 42.12324 | 12.19153 | 4063 ft | 253 kts | 174° |
| 2026-05-04 12:48 | 42.10590 | 12.19367 | 3810 ft | 251 kts | 174° |
| 2026-05-04 12:49 | 42.08842 | 12.19585 | 3555 ft | 251 kts | 174° |
| 2026-05-04 12:49 | 42.07084 | 12.19811 | 3320 ft | 249 kts | 174° |
| 2026-05-04 12:49 | 42.05380 | 12.20030 | 3078 ft | 244 kts | 174° |
| 2026-05-04 12:49 | 42.03708 | 12.20238 | 2830 ft | 239 kts | 174° |
| 2026-05-04 12:50 | 42.02079 | 12.20436 | 2582 ft | 235 kts | 174° |
| 2026-05-04 12:50 | 42.00471 | 12.20633 | 2482 ft | 223 kts | 174° |
| 2026-05-04 12:50 | 41.98965 | 12.20719 | 2473 ft | 212 kts | 177° |
| 2026-05-04 12:50 | 41.97548 | 12.20896 | 2452 ft | 200 kts | 169° |
| 2026-05-04 12:51 | 41.96202 | 12.21294 | 2315 ft | 194 kts | 165° |
| 2026-05-04 12:51 | 41.94918 | 12.21803 | 2095 ft | 191 kts | 162° |
| 2026-05-04 12:51 | 41.93677 | 12.22335 | 1900 ft | 183 kts | 163° |
| 2026-05-04 12:51 | 41.92489 | 12.22844 | 1630 ft | 178 kts | 163° |
| 2026-05-04 12:52 | 41.91342 | 12.23327 | 1373 ft | 165 kts | 163° |
| 2026-05-04 12:52 | 41.90282 | 12.23773 | 1176 ft | 151 kts | 164° |
| 2026-05-04 12:52 | 41.89330 | 12.24169 | 965 ft | 137 kts | 164° |
| 2026-05-04 12:52 | 41.88440 | 12.24538 | 791 ft | 131 kts | 162° |
| 2026-05-04 12:53 | 41.87568 | 12.24902 | 634 ft | 131 kts | 164° |
| 2026-05-04 12:53 | 41.86704 | 12.25259 | 464 ft | 130 kts | 164° |
| 2026-05-04 12:53 | 41.85841 | 12.25619 | 295 ft | 130 kts | 163° |
| 2026-05-04 12:53 | 41.84974 | 12.25992 | 122 ft | 129 kts | 165° |
| 2026-05-04 12:54 | 41.84120 | 12.26347 | 20 ft | 121 kts | 164° |
| 2026-05-04 12:54 | 41.83405 | 12.26646 | 12 ft | 92 kts | 161° |
| 2026-05-04 12:54 | 41.82873 | 12.26870 | 11 ft | 71 kts | 162° |
| 2026-05-04 12:54 | 41.82451 | 12.27047 | 11 ft | 55 kts | 162° |
| 2026-05-04 12:55 | 41.82164 | 12.27143 | 11 ft | 35 kts | 177° |
| 2026-05-04 12:55 | 41.81932 | 12.27102 | 11 ft | 31 kts | 191° |
| 2026-05-04 12:55 | 41.81723 | 12.27047 | 11 ft | 28 kts | 179° |
| 2026-05-04 12:55 | 41.81535 | 12.27107 | 12 ft | 26 kts | 163° |
| 2026-05-04 12:56 | 41.81363 | 12.27180 | 12 ft | 25 kts | 162° |
| 2026-05-04 12:56 | 41.81198 | 12.27249 | 13 ft | 23 kts | 162° |
| 2026-05-04 12:56 | 41.81043 | 12.27315 | 13 ft | 22 kts | 162° |
| 2026-05-04 12:56 | 41.80893 | 12.27348 | 13 ft | 21 kts | 186° |
| 2026-05-04 12:57 | 41.80747 | 12.27315 | 13 ft | 20 kts | 191° |
| 2026-05-04 12:57 | 41.80647 | 12.27199 | 13 ft | 19 kts | 249° |
| 2026-05-04 12:57 | 41.80599 | 12.27028 | 14 ft | 19 kts | 248° |
| 2026-05-04 12:57 | 41.80554 | 12.26862 | 14 ft | 18 kts | 250° |
| 2026-05-04 12:58 | 41.80509 | 12.26700 | 15 ft | 18 kts | 249° |
| 2026-05-04 12:58 | 41.80464 | 12.26537 | 15 ft | 18 kts | 249° |
| 2026-05-04 12:58 | 41.80421 | 12.26393 | 15 ft | 14 kts | 229° |
| 2026-05-04 12:58 | 41.80327 | 12.26380 | 16 ft | 14 kts | 162° |
| 2026-05-04 12:59 | 41.80228 | 12.26414 | 16 ft | 14 kts | 187° |
| 2026-05-04 12:59 | 41.80134 | 12.26357 | 16 ft | 15 kts | 205° |
| 2026-05-04 12:59 | 41.80036 | 12.26296 | 16 ft | 15 kts | 204° |
| 2026-05-04 12:59 | 41.79935 | 12.26235 | 16 ft | 16 kts | 204° |
| 2026-05-04 13:00 | 41.79835 | 12.26172 | 16 ft | 11 kts | 215° |
| 2026-05-04 13:00 | 41.79834 | 12.26076 | 16 ft | 11 kts | 295° |
| 2026-05-04 13:00 | 41.79871 | 12.25971 | 16 ft | 13 kts | 295° |
| 2026-05-04 13:00 | 41.79899 | 12.25893 | 16 ft | 3 kts | 295° |
| 2026-05-04 13:01 | 41.79895 | 12.25847 | 16 ft | 8 kts | 219° |
| 2026-05-04 13:01 | 41.79820 | 12.25782 | 16 ft | 15 kts | 206° |
| 2026-05-04 13:01 | 41.79723 | 12.25720 | 16 ft | 15 kts | 205° |
| 2026-05-04 13:01 | 41.79677 | 12.25678 | 16 ft | 4 kts | 239° |
| 2026-05-04 13:02 | 41.79681 | 12.25641 | 16 ft | 4 kts | 294° |
| 2026-05-04 13:02 | 41.79690 | 12.25616 | 16 ft | 0 kts | 295° |